createdAt,value
2022-11-27T00:01:37.746Z,65.17
2022-11-27T00:04:06.603Z,64.85
2022-11-27T00:06:38.928Z,64.57
2022-11-27T00:09:09.784Z,65.00
2022-11-27T00:11:39.411Z,64.84
2022-11-27T00:14:09.885Z,64.79
2022-11-27T00:16:37.756Z,64.77
2022-11-27T00:19:06.291Z,64.69
2022-11-27T00:21:38.381Z,64.51
2022-11-27T00:24:08.837Z,64.65
2022-11-27T00:26:38.320Z,64.59
2022-11-27T00:29:06.490Z,64.42
2022-11-27T00:31:38.365Z,64.49
2022-11-27T00:34:08.627Z,64.18
2022-11-27T00:36:37.557Z,64.26
2022-11-27T00:39:06.148Z,64.42
2022-11-27T00:41:34.127Z,63.77
2022-11-27T00:44:02.563Z,64.06
2022-11-27T00:46:32.700Z,64.07
2022-11-27T00:49:04.131Z,64.00
2022-11-27T00:51:32.398Z,63.86
2022-11-27T00:54:00.981Z,64.13
2022-11-27T00:56:30.438Z,63.48
2022-11-27T00:58:58.818Z,64.12
2022-11-27T01:01:29.801Z,63.64
2022-11-27T01:03:58.678Z,63.85
2022-11-27T01:06:29.887Z,63.62
2022-11-27T01:09:00.317Z,64.12
2022-11-27T01:11:31.009Z,63.52
2022-11-27T01:14:00.637Z,63.46
2022-11-27T01:16:31.132Z,63.35
2022-11-27T01:19:01.198Z,63.24
2022-11-27T01:21:33.440Z,63.52
2022-11-27T01:24:02.069Z,63.31
2022-11-27T01:26:30.393Z,63.00
2022-11-27T01:28:59.757Z,63.33
2022-11-27T01:31:31.450Z,62.98
2022-11-27T01:34:02.120Z,62.97
2022-11-27T01:36:33.126Z,62.58
2022-11-27T01:39:01.810Z,62.86
2022-11-27T01:41:36.174Z,63.02
2022-11-27T01:44:25.145Z,62.67
2022-11-27T01:46:56.857Z,62.65
2022-11-27T01:49:31.827Z,62.73
2022-11-27T01:52:04.649Z,62.70
2022-11-27T01:54:36.370Z,62.46
2022-11-27T01:57:09.796Z,62.49
2022-11-27T01:59:37.858Z,62.24
2022-11-27T02:02:06.355Z,62.28
2022-11-27T02:04:34.798Z,62.16
2022-11-27T02:07:04.247Z,62.31
2022-11-27T02:09:33.320Z,61.75
2022-11-27T02:12:17.155Z,62.15
2022-11-27T02:14:51.385Z,62.28
2022-11-27T02:17:23.623Z,61.83
2022-11-27T02:20:12.612Z,62.13
2022-11-27T02:23:06.995Z,61.85
2022-11-27T02:25:53.314Z,61.78
2022-11-27T02:28:39.788Z,61.30
2022-11-27T02:31:16.151Z,61.39
2022-11-27T02:33:51.499Z,61.40
2022-11-27T02:36:24.561Z,61.49
2022-11-27T02:38:59.059Z,61.25
2022-11-27T02:41:31.053Z,61.33
2022-11-27T02:44:01.495Z,61.08
2022-11-27T02:46:31.822Z,61.03
2022-11-27T02:49:04.806Z,60.60
2022-11-27T02:51:40.036Z,60.85
2022-11-27T02:54:12.327Z,60.64
2022-11-27T02:56:43.958Z,60.64
2022-11-27T02:59:15.156Z,60.19
2022-11-27T03:01:47.717Z,60.69
2022-11-27T03:04:21.801Z,60.55
2022-11-27T03:06:55.695Z,60.41
2022-11-27T03:09:27.257Z,60.32
2022-11-27T03:11:56.262Z,60.25
2022-11-27T03:14:24.963Z,59.88
2022-11-27T03:17:03.815Z,60.31
2022-11-27T03:19:40.365Z,59.92
2022-11-27T03:22:08.983Z,59.84
2022-11-27T03:24:37.612Z,59.78
2022-11-27T03:27:07.142Z,59.52
2022-11-27T03:29:38.282Z,59.75
2022-11-27T03:32:08.793Z,59.87
2022-11-27T03:34:37.820Z,59.66
2022-11-27T03:37:06.457Z,59.60
2022-11-27T03:39:35.664Z,59.92
2022-11-27T03:42:15.684Z,59.60
2022-11-27T03:44:48.105Z,59.61
2022-11-27T03:47:34.317Z,60.02
2022-11-27T03:50:19.447Z,59.81
2022-11-27T03:52:57.522Z,60.17
2022-11-27T03:55:33.194Z,59.66
2022-11-27T03:58:04.939Z,60.13
2022-11-27T04:00:37.382Z,60.05
2022-11-27T04:03:10.028Z,60.11
2022-11-27T04:05:38.311Z,60.09
2022-11-27T04:08:07.305Z,60.30
2022-11-27T04:10:37.195Z,59.75
2022-11-27T04:13:05.904Z,60.11
2022-11-27T04:15:33.732Z,60.21
2022-11-27T04:18:02.033Z,60.01
2022-11-27T04:20:31.418Z,60.25
2022-11-27T04:22:59.765Z,60.49
2022-11-27T04:25:27.975Z,60.35
2022-11-27T04:27:56.911Z,60.03
2022-11-27T04:30:24.760Z,60.02
2022-11-27T04:32:52.592Z,60.23
2022-11-27T04:35:20.842Z,60.25
2022-11-27T04:37:50.163Z,60.38
2022-11-27T04:40:18.811Z,60.22
2022-11-27T04:42:46.727Z,60.52
2022-11-27T04:45:17.883Z,60.22
2022-11-27T04:47:46.156Z,60.42
2022-11-27T04:50:14.322Z,60.51
2022-11-27T04:52:42.601Z,60.92
2022-11-27T04:55:12.171Z,60.97
2022-11-27T04:57:40.671Z,61.21
2022-11-27T05:00:09.982Z,61.21
2022-11-27T05:02:37.870Z,61.41
2022-11-27T05:05:06.795Z,61.57
2022-11-27T05:07:34.720Z,61.67
2022-11-27T05:10:03.252Z,61.85
2022-11-27T05:12:32.715Z,61.27
2022-11-27T05:15:04.244Z,62.13
2022-11-27T05:17:33.148Z,61.52
2022-11-27T05:20:01.019Z,61.98
2022-11-27T05:22:29.649Z,62.40
2022-11-27T05:24:57.498Z,62.14
2022-11-27T05:27:25.901Z,62.14
2022-11-27T05:29:55.185Z,62.28
2022-11-27T05:32:23.422Z,62.10
2022-11-27T05:34:51.313Z,62.44
2022-11-27T05:37:20.221Z,62.61
2022-11-27T05:39:50.311Z,62.23
2022-11-27T05:42:18.592Z,62.76
2022-11-27T05:44:46.683Z,62.91
2022-11-27T05:47:16.545Z,63.25
2022-11-27T05:49:44.463Z,62.76
2022-11-27T05:52:12.294Z,63.36
2022-11-27T05:54:43.430Z,62.97
2022-11-27T05:57:11.579Z,63.44
2022-11-27T05:59:39.930Z,63.43
2022-11-27T06:02:07.907Z,63.50
2022-11-27T06:04:37.884Z,62.97
2022-11-27T06:07:05.842Z,63.23
2022-11-27T06:09:35.588Z,63.39
2022-11-27T06:12:03.839Z,63.01
2022-11-27T06:14:32.380Z,63.34
2022-11-27T06:17:00.812Z,63.82
2022-11-27T06:19:29.016Z,64.17
2022-11-27T06:21:58.677Z,63.30
2022-11-27T06:24:26.822Z,63.51
2022-11-27T06:26:54.642Z,63.80
2022-11-27T06:29:22.877Z,63.64
2022-11-27T06:31:51.395Z,63.69
2022-11-27T06:34:19.401Z,63.54
2022-11-27T06:36:47.961Z,63.55
2022-11-27T06:39:17.339Z,63.55
2022-11-27T06:41:45.657Z,64.16
2022-11-27T06:44:13.557Z,63.82
2022-11-27T06:46:42.017Z,63.69
2022-11-27T06:49:10.870Z,63.61
2022-11-27T06:51:39.288Z,63.68
2022-11-27T06:54:07.329Z,63.43
2022-11-27T06:56:37.728Z,63.59
2022-11-27T06:59:05.558Z,63.64
2022-11-27T07:01:34.978Z,63.77
2022-11-27T07:04:03.002Z,63.54
2022-11-27T07:06:30.974Z,63.76
2022-11-27T07:08:59.442Z,63.15
2022-11-27T07:11:29.869Z,63.38
2022-11-27T07:14:01.449Z,63.19
2022-11-27T07:16:31.623Z,63.25
2022-11-27T07:19:02.582Z,62.87
2022-11-27T07:21:32.730Z,63.25
2022-11-27T07:24:01.747Z,63.05
2022-11-27T07:26:31.429Z,63.24
2022-11-27T07:29:01.498Z,63.16
2022-11-27T07:31:30.976Z,63.27
2022-11-27T07:34:00.386Z,62.86
2022-11-27T07:36:31.458Z,62.98
2022-11-27T07:38:59.440Z,62.79
2022-11-27T07:41:33.392Z,62.72
2022-11-27T07:44:04.373Z,62.62
2022-11-27T07:46:32.204Z,62.63
2022-11-27T07:49:01.852Z,62.73
2022-11-27T07:51:30.025Z,62.86
2022-11-27T07:53:58.576Z,62.51
2022-11-27T07:56:27.826Z,62.65
2022-11-27T07:58:55.557Z,63.00
2022-11-27T08:01:26.062Z,62.96
2022-11-27T08:03:54.577Z,62.47
2022-11-27T08:06:24.252Z,62.53
2022-11-27T08:08:53.117Z,62.82
2022-11-27T08:11:23.646Z,62.88
2022-11-27T08:13:52.118Z,63.12
2022-11-27T08:16:22.397Z,62.99
2022-11-27T08:18:53.349Z,62.72
2022-11-27T08:21:21.717Z,62.84
2022-11-27T08:23:49.538Z,62.47
2022-11-27T08:26:17.779Z,62.69
2022-11-27T08:28:46.237Z,62.38
2022-11-27T08:31:16.122Z,62.47
2022-11-27T08:33:44.088Z,62.59
2022-11-27T08:36:18.094Z,62.01
2022-11-27T08:38:46.430Z,62.18
2022-11-27T08:41:14.595Z,62.30
2022-11-27T08:43:42.396Z,62.26
2022-11-27T08:46:10.859Z,61.85
2022-11-27T08:48:39.198Z,62.35
2022-11-27T08:51:08.265Z,62.46
2022-11-27T08:53:38.809Z,61.83
2022-11-27T08:56:07.784Z,62.03
2022-11-27T08:58:36.084Z,61.98
2022-11-27T09:01:09.884Z,61.90
2022-11-27T09:03:38.352Z,62.21
2022-11-27T09:06:08.555Z,62.33
2022-11-27T09:08:37.843Z,62.48
2022-11-27T09:11:06.197Z,62.40
2022-11-27T09:13:36.787Z,62.50
2022-11-27T09:16:05.641Z,62.77
2022-11-27T09:18:33.492Z,62.50
2022-11-27T09:21:05.022Z,62.71
2022-11-27T09:23:33.928Z,62.81
2022-11-27T09:26:05.513Z,63.01
2022-11-27T09:28:34.818Z,62.94
2022-11-27T09:31:07.393Z,62.83
2022-11-27T09:33:39.298Z,63.06
2022-11-27T09:36:09.784Z,63.16
2022-11-27T09:38:38.869Z,63.09
2022-11-27T09:41:36.559Z,63.12
2022-11-27T09:44:13.389Z,63.05
2022-11-27T09:46:43.612Z,63.06
2022-11-27T09:49:19.561Z,63.32
2022-11-27T09:51:54.585Z,63.39
2022-11-27T09:54:26.249Z,63.47
2022-11-27T09:56:59.325Z,63.71
2022-11-27T09:59:35.264Z,63.43
2022-11-27T10:02:03.201Z,63.49
2022-11-27T10:04:50.948Z,63.70
2022-11-27T10:07:30.825Z,63.78
2022-11-27T10:10:17.547Z,63.89
2022-11-27T10:13:00.560Z,63.95
2022-11-27T10:15:38.819Z,64.23
2022-11-27T10:18:14.103Z,63.67
2022-11-27T10:20:47.665Z,64.27
2022-11-27T10:23:25.477Z,64.29
2022-11-27T10:25:59.172Z,64.21
2022-11-27T10:28:37.899Z,64.26
2022-11-27T10:31:13.777Z,64.34
2022-11-27T10:33:45.959Z,64.48
2022-11-27T10:36:16.879Z,64.18
2022-11-27T10:38:45.370Z,64.34
2022-11-27T10:41:48.723Z,64.65
2022-11-27T10:44:24.046Z,64.68
2022-11-27T10:46:54.580Z,64.42
2022-11-27T10:49:22.422Z,64.09
2022-11-27T10:51:50.127Z,64.51
2022-11-27T10:54:24.547Z,64.15
2022-11-27T10:57:09.521Z,64.30
2022-11-27T10:59:44.684Z,64.08
2022-11-27T11:02:28.520Z,64.21
2022-11-27T11:05:23.986Z,64.01
2022-11-27T11:07:44.659Z,64.06
2022-11-27T11:10:27.239Z,64.01
2022-11-27T11:13:16.736Z,63.98
2022-11-27T11:15:56.004Z,63.81
2022-11-27T11:18:26.370Z,63.79
2022-11-27T11:20:57.827Z,63.78
2022-11-27T11:23:32.404Z,63.50
2022-11-27T11:26:08.684Z,63.18
2022-11-27T11:28:47.637Z,63.58
2022-11-27T11:31:20.587Z,63.22
2022-11-27T11:33:52.346Z,63.60
2022-11-27T11:36:20.603Z,63.56
2022-11-27T11:38:49.472Z,63.54
2022-11-27T11:41:19.071Z,63.58
2022-11-27T11:43:58.883Z,63.43
2022-11-27T11:46:32.189Z,63.06
2022-11-27T11:49:04.158Z,62.25
2022-11-27T11:51:56.827Z,63.02
2022-11-27T11:54:40.603Z,62.75
2022-11-27T11:57:33.554Z,62.32
2022-11-27T12:00:07.816Z,61.96
2022-11-27T12:02:56.783Z,61.98
2022-11-27T12:05:30.983Z,62.09
2022-11-27T12:08:25.919Z,61.65
2022-11-27T12:11:03.594Z,62.08
2022-11-27T12:14:04.946Z,61.93
2022-11-27T12:16:43.174Z,61.50
2022-11-27T12:19:32.026Z,61.90
2022-11-27T12:22:12.487Z,61.67
2022-11-27T12:24:51.380Z,61.91
2022-11-27T12:27:32.998Z,61.33
2022-11-27T12:30:10.406Z,61.61
2022-11-27T12:33:04.232Z,61.71
2022-11-27T12:35:40.034Z,60.96
2022-11-27T12:38:29.656Z,61.02
2022-11-27T12:41:13.782Z,60.81
2022-11-27T12:43:45.487Z,61.23
2022-11-27T12:46:17.173Z,61.04
2022-11-27T12:48:51.387Z,61.02
2022-11-27T12:51:26.834Z,61.01
2022-11-27T12:54:01.859Z,60.83
2022-11-27T12:56:33.144Z,61.18
2022-11-27T12:59:11.769Z,60.87
2022-11-27T13:01:44.504Z,61.24
2022-11-27T13:04:20.595Z,61.45
2022-11-27T13:06:56.762Z,61.38
2022-11-27T13:09:34.229Z,61.09
2022-11-27T13:12:03.467Z,61.17
2022-11-27T13:14:37.371Z,61.18
2022-11-27T13:17:08.115Z,60.82
2022-11-27T13:19:41.353Z,60.74
2022-11-27T13:22:15.369Z,60.69
2022-11-27T13:24:44.182Z,61.23
2022-11-27T13:27:17.105Z,60.09
2022-11-27T13:29:50.111Z,60.68
2022-11-27T13:32:24.397Z,60.63
2022-11-27T13:34:53.768Z,60.97
2022-11-27T13:37:31.336Z,61.07
2022-11-27T13:40:07.149Z,61.07
2022-11-27T13:42:37.585Z,60.84
2022-11-27T13:45:11.266Z,60.84
2022-11-27T13:47:44.306Z,60.58
2022-11-27T13:50:15.240Z,65.08
2022-11-27T13:52:57.384Z,61.92
2022-11-27T13:55:28.939Z,60.61
2022-11-27T13:57:59.440Z,61.03
2022-11-27T14:00:37.772Z,60.72
2022-11-27T14:03:09.685Z,60.07
2022-11-27T14:05:41.569Z,60.08
2022-11-27T14:08:23.384Z,60.08
2022-11-27T14:10:59.101Z,59.75
2022-11-27T14:13:38.846Z,59.65
2022-11-27T14:16:21.403Z,59.56
2022-11-27T14:18:52.725Z,60.19
2022-11-27T14:21:27.458Z,59.66
2022-11-27T14:23:56.658Z,59.78
2022-11-27T14:26:25.926Z,59.61
2022-11-27T14:28:56.524Z,59.32
2022-11-27T14:31:30.234Z,60.05
2022-11-27T14:34:14.803Z,59.67
2022-11-27T14:36:43.909Z,60.18
2022-11-27T14:39:23.924Z,59.83
2022-11-27T14:41:58.700Z,60.40
2022-11-27T14:44:26.986Z,60.16
2022-11-27T14:46:55.770Z,60.36
2022-11-27T14:49:29.039Z,60.33
2022-11-27T14:52:01.075Z,60.50
2022-11-27T14:54:34.207Z,60.17
2022-11-27T14:57:02.397Z,59.64
2022-11-27T14:59:30.378Z,59.50
2022-11-27T15:02:03.621Z,60.26
2022-11-27T15:04:35.959Z,60.58
2022-11-27T15:07:06.920Z,59.75
2022-11-27T15:09:37.397Z,60.14
2022-11-27T15:12:16.382Z,60.03
2022-11-27T15:14:47.899Z,59.86
2022-11-27T15:17:19.270Z,59.90
2022-11-27T15:19:47.886Z,60.18
2022-11-27T15:22:18.197Z,60.05
2022-11-27T15:24:47.476Z,59.96
2022-11-27T15:27:21.110Z,59.88
2022-11-27T15:30:13.759Z,59.83
2022-11-27T15:32:51.360Z,59.92
2022-11-27T15:35:25.703Z,59.77
2022-11-27T15:37:55.816Z,59.75
2022-11-27T15:40:32.249Z,59.97
2022-11-27T15:43:00.655Z,60.49
2022-11-27T15:45:31.193Z,60.02
2022-11-27T15:48:01.125Z,60.07
2022-11-27T15:50:30.289Z,60.54
2022-11-27T15:53:01.297Z,60.63
2022-11-27T15:55:30.786Z,60.29
2022-11-27T15:57:58.817Z,59.77
2022-11-27T16:00:27.086Z,60.49
2022-11-27T16:02:55.311Z,60.17
2022-11-27T16:05:23.780Z,60.17
2022-11-27T16:07:55.191Z,60.61
2022-11-27T16:10:24.034Z,60.63
2022-11-27T16:12:55.450Z,61.03
2022-11-27T16:15:25.762Z,60.93
2022-11-27T16:17:56.627Z,61.38
2022-11-27T16:20:25.053Z,61.10
2022-11-27T16:22:53.297Z,61.46
2022-11-27T16:25:21.345Z,61.10
2022-11-27T16:27:49.661Z,61.40
2022-11-27T16:30:20.080Z,61.92
2022-11-27T16:32:48.298Z,61.52
2022-11-27T16:35:16.222Z,61.60
2022-11-27T16:37:44.452Z,61.78
2022-11-27T16:40:13.566Z,61.59
2022-11-27T16:42:41.842Z,62.11
2022-11-27T16:45:10.448Z,61.46
2022-11-27T16:47:39.874Z,61.79
2022-11-27T16:50:09.891Z,61.97
2022-11-27T16:52:40.731Z,61.92
2022-11-27T16:55:10.208Z,61.83
2022-11-27T16:57:38.095Z,62.00
2022-11-27T17:00:07.843Z,61.94
2022-11-27T17:02:35.976Z,61.56
2022-11-27T17:05:06.283Z,61.55
2022-11-27T17:07:34.157Z,61.66
2022-11-27T17:10:03.086Z,61.79
2022-11-27T17:12:30.942Z,61.83
2022-11-27T17:14:58.730Z,62.13
2022-11-27T17:17:27.221Z,62.28
2022-11-27T17:20:00.455Z,62.00
2022-11-27T17:22:32.603Z,62.31
2022-11-27T17:25:00.583Z,62.20
2022-11-27T17:27:28.800Z,62.30
2022-11-27T17:29:56.621Z,62.61
2022-11-27T17:32:25.241Z,61.98
2022-11-27T17:34:56.321Z,62.11
2022-11-27T17:37:24.478Z,62.31
2022-11-27T17:39:54.166Z,62.31
2022-11-27T17:42:23.016Z,62.14
2022-11-27T17:44:52.056Z,62.41
2022-11-27T17:47:19.931Z,62.27
2022-11-27T17:49:48.243Z,62.76
2022-11-27T17:52:16.134Z,62.69
2022-11-27T17:54:44.391Z,63.20
2022-11-27T17:57:13.669Z,63.04
2022-11-27T17:59:41.930Z,62.85
2022-11-27T18:02:11.590Z,63.10
2022-11-27T18:04:40.104Z,62.92
2022-11-27T18:07:07.890Z,63.53
2022-11-27T18:09:36.148Z,63.31
2022-11-27T18:12:06.385Z,63.80
2022-11-27T18:14:40.255Z,63.00
2022-11-27T18:17:08.403Z,63.41
2022-11-27T18:19:36.265Z,63.37
2022-11-27T18:22:09.337Z,63.53
2022-11-27T18:24:41.573Z,63.53
2022-11-27T18:27:10.432Z,63.58
2022-11-27T18:29:42.500Z,63.38
2022-11-27T18:32:29.778Z,63.64
2022-11-27T18:34:57.618Z,63.67
2022-11-27T18:37:25.722Z,63.75
2022-11-27T18:39:53.531Z,63.98
2022-11-27T18:42:21.754Z,64.08
2022-11-27T18:44:51.550Z,64.32
2022-11-27T18:47:19.481Z,64.43
2022-11-27T18:49:49.186Z,64.10
2022-11-27T18:52:17.412Z,64.86
2022-11-27T18:54:47.700Z,65.31
2022-11-27T18:57:15.459Z,64.97
2022-11-27T18:59:44.810Z,65.01
2022-11-27T19:02:14.532Z,64.73
2022-11-27T19:04:44.440Z,65.28
2022-11-27T19:07:12.561Z,65.01
2022-11-27T19:09:41.105Z,65.12
2022-11-27T19:12:09.148Z,65.48
2022-11-27T19:14:37.146Z,65.13
2022-11-27T19:17:04.940Z,65.56
2022-11-27T19:19:53.869Z,65.21
2022-11-27T19:22:22.533Z,65.36
2022-11-27T19:24:50.372Z,65.44
2022-11-27T19:27:18.161Z,65.34
2022-11-27T19:29:46.105Z,65.57
2022-11-27T19:32:13.945Z,65.80
2022-11-27T19:34:46.116Z,65.75
2022-11-27T19:37:14.035Z,68.84
2022-11-27T19:39:41.796Z,66.81
2022-11-27T19:42:10.113Z,66.19
2022-11-27T19:44:37.976Z,66.36
2022-11-27T19:47:06.884Z,66.34
2022-11-27T19:49:34.631Z,66.11
2022-11-27T19:52:04.239Z,66.03
2022-11-27T19:54:32.026Z,66.34
2022-11-27T19:56:59.916Z,66.35
2022-11-27T19:59:27.866Z,66.67
2022-11-27T20:01:55.887Z,66.58
2022-11-27T20:04:23.939Z,66.70
2022-11-27T20:06:53.427Z,66.67
2022-11-27T20:09:22.783Z,67.16
2022-11-27T20:11:50.617Z,67.00
2022-11-27T20:14:19.840Z,67.14
2022-11-27T20:16:47.992Z,67.11
2022-11-27T20:19:16.494Z,67.08
2022-11-27T20:21:44.417Z,66.78
2022-11-27T20:24:13.088Z,67.10
2022-11-27T20:26:42.952Z,67.06
2022-11-27T20:29:11.957Z,66.90
2022-11-27T20:31:43.722Z,66.88
2022-11-27T20:34:19.294Z,67.27
2022-11-27T20:36:47.312Z,66.61
2022-11-27T20:39:21.280Z,66.90
2022-11-27T20:41:51.865Z,66.72
2022-11-27T20:44:20.338Z,66.97
2022-11-27T20:46:48.273Z,67.20
2022-11-27T20:49:16.643Z,67.35
2022-11-27T20:51:44.647Z,67.13
2022-11-27T20:54:13.616Z,67.18
2022-11-27T20:56:45.082Z,66.96
2022-11-27T20:59:18.515Z,66.95
2022-11-27T21:01:46.354Z,66.63
2022-11-27T21:04:23.773Z,67.08
2022-11-27T21:06:52.810Z,66.83
2022-11-27T21:09:22.584Z,66.66
2022-11-27T21:11:50.417Z,66.70
2022-11-27T21:14:21.779Z,66.75
2022-11-27T21:16:51.301Z,66.41
2022-11-27T21:19:21.188Z,66.53
2022-11-27T21:21:49.713Z,66.16
2022-11-27T21:24:18.546Z,66.26
2022-11-27T21:26:47.165Z,65.83
2022-11-27T21:29:15.234Z,65.62
2022-11-27T21:31:47.398Z,65.49
2022-11-27T21:34:16.912Z,65.55
2022-11-27T21:36:44.829Z,65.13
2022-11-27T21:39:14.808Z,65.50
2022-11-27T21:41:42.705Z,65.13
2022-11-27T21:44:12.149Z,65.22
2022-11-27T21:46:40.226Z,65.05
2022-11-27T21:49:09.580Z,64.85
2022-11-27T21:51:37.795Z,64.96
2022-11-27T21:54:08.010Z,64.57
2022-11-27T21:56:38.922Z,64.86
2022-11-27T21:59:09.901Z,64.79
2022-11-27T22:01:38.989Z,64.92
2022-11-27T22:04:07.072Z,64.10
2022-11-27T22:06:39.276Z,64.67
2022-11-27T22:09:13.349Z,64.59
2022-11-27T22:11:43.649Z,64.25
2022-11-27T22:14:11.545Z,64.20
2022-11-27T22:16:45.206Z,64.00
2022-11-27T22:19:14.510Z,63.48
2022-11-27T22:21:45.214Z,64.08
2022-11-27T22:24:18.468Z,63.51
2022-11-27T22:26:47.893Z,63.81
2022-11-27T22:29:15.719Z,63.61
2022-11-27T22:31:43.606Z,63.04
2022-11-27T22:34:11.801Z,63.38
2022-11-27T22:36:39.571Z,63.11
2022-11-27T22:39:09.650Z,63.36
2022-11-27T22:41:40.805Z,63.22
2022-11-27T22:44:09.917Z,63.24
2022-11-27T22:46:41.240Z,62.34
2022-11-27T22:49:11.279Z,63.12
2022-11-27T22:51:41.228Z,62.75
2022-11-27T22:54:12.908Z,62.78
2022-11-27T22:56:41.352Z,62.86
2022-11-27T22:59:32.211Z,62.32
2022-11-27T23:01:57.881Z,62.34
2022-11-27T23:04:25.665Z,61.57
2022-11-27T23:06:53.517Z,62.01
2022-11-27T23:09:23.175Z,61.76
2022-11-27T23:11:51.429Z,61.86
2022-11-27T23:14:19.834Z,61.71
2022-11-27T23:16:48.229Z,61.80
2022-11-27T23:19:16.594Z,61.56
2022-11-27T23:21:44.497Z,61.75
2022-11-27T23:24:15.635Z,61.73
2022-11-27T23:26:45.946Z,62.00
2022-11-27T23:29:14.711Z,61.64
2022-11-27T23:31:43.633Z,61.56
2022-11-27T23:34:16.549Z,61.61
2022-11-27T23:36:45.421Z,61.49
2022-11-27T23:39:14.480Z,61.44
2022-11-27T23:41:44.756Z,61.49
2022-11-27T23:44:13.071Z,61.09
2022-11-27T23:46:40.928Z,61.34
2022-11-27T23:49:09.524Z,60.99
2022-11-27T23:51:37.818Z,60.47
2022-11-27T23:54:09.591Z,60.89
2022-11-27T23:56:39.223Z,60.80
2022-11-27T23:59:09.419Z,61.07
